sensor_id;sensor_type;location;lat;lon;timestamp;temperature;humidity
53286;DHT22;39171;45.550;12.074;2022-10-23T00:03:15;19.60;81.60
53286;DHT22;39171;45.550;12.074;2022-10-23T00:09:19;19.60;81.60
53286;DHT22;39171;45.550;12.074;2022-10-23T00:15:21;19.60;81.70
53286;DHT22;39171;45.550;12.074;2022-10-23T00:21:23;19.60;81.60
53286;DHT22;39171;45.550;12.074;2022-10-23T00:27:25;19.60;81.70
53286;DHT22;39171;45.550;12.074;2022-10-23T00:33:27;19.50;81.60
53286;DHT22;39171;45.550;12.074;2022-10-23T00:39:28;19.60;81.70
53286;DHT22;39171;45.550;12.074;2022-10-23T00:45:31;19.60;81.70
53286;DHT22;39171;45.550;12.074;2022-10-23T00:51:43;19.60;81.70
53286;DHT22;39171;45.550;12.074;2022-10-23T00:57:47;19.60;81.60
53286;DHT22;39171;45.550;12.074;2022-10-23T01:03:50;19.50;81.70
53286;DHT22;39171;45.550;12.074;2022-10-23T01:16:22;19.50;81.80
53286;DHT22;39171;45.550;12.074;2022-10-23T01:22:45;19.50;81.70
53286;DHT22;39171;45.550;12.074;2022-10-23T01:35:39;19.50;81.70
53286;DHT22;39171;45.550;12.074;2022-10-23T01:41:49;19.50;81.70
53286;DHT22;39171;45.550;12.074;2022-10-23T01:48:00;19.50;81.70
53286;DHT22;39171;45.550;12.074;2022-10-23T01:54:06;19.50;81.90
53286;DHT22;39171;45.550;12.074;2022-10-23T02:00:11;19.50;82.20
53286;DHT22;39171;45.550;12.074;2022-10-23T02:06:39;19.50;82.10
53286;DHT22;39171;45.550;12.074;2022-10-23T02:25:17;19.50;82.00
53286;DHT22;39171;45.550;12.074;2022-10-23T02:31:23;19.50;82.00
53286;DHT22;39171;45.550;12.074;2022-10-23T02:37:25;19.50;82.00
53286;DHT22;39171;45.550;12.074;2022-10-23T02:43:32;19.50;82.00
53286;DHT22;39171;45.550;12.074;2022-10-23T02:49:41;19.50;82.00
53286;DHT22;39171;45.550;12.074;2022-10-23T02:56:02;19.50;82.00
53286;DHT22;39171;45.550;12.074;2022-10-23T03:02:14;19.50;82.00
53286;DHT22;39171;45.550;12.074;2022-10-23T03:08:17;19.50;82.00
53286;DHT22;39171;45.550;12.074;2022-10-23T03:14:19;19.40;82.00
53286;DHT22;39171;45.550;12.074;2022-10-23T03:20:20;19.40;82.10
53286;DHT22;39171;45.550;12.074;2022-10-23T03:26:22;19.40;82.20
53286;DHT22;39171;45.550;12.074;2022-10-23T03:32:23;19.40;82.10
53286;DHT22;39171;45.550;12.074;2022-10-23T03:38:25;19.40;82.20
53286;DHT22;39171;45.550;12.074;2022-10-23T03:44:26;19.40;82.20
53286;DHT22;39171;45.550;12.074;2022-10-23T03:50:28;19.40;82.10
53286;DHT22;39171;45.550;12.074;2022-10-23T03:56:30;19.40;82.10
53286;DHT22;39171;45.550;12.074;2022-10-23T04:02:31;19.40;82.10
53286;DHT22;39171;45.550;12.074;2022-10-23T04:08:33;19.40;82.20
53286;DHT22;39171;45.550;12.074;2022-10-23T04:14:37;19.30;82.20
53286;DHT22;39171;45.550;12.074;2022-10-23T04:20:39;19.40;82.10
53286;DHT22;39171;45.550;12.074;2022-10-23T04:26:40;19.30;82.20
53286;DHT22;39171;45.550;12.074;2022-10-23T04:32:44;19.30;82.20
53286;DHT22;39171;45.550;12.074;2022-10-23T04:38:46;19.30;82.10
53286;DHT22;39171;45.550;12.074;2022-10-23T04:44:48;19.30;82.20
53286;DHT22;39171;45.550;12.074;2022-10-23T04:50:57;19.30;82.10
53286;DHT22;39171;45.550;12.074;2022-10-23T04:57:17;19.30;82.10
53286;DHT22;39171;45.550;12.074;2022-10-23T05:03:33;19.30;82.20
53286;DHT22;39171;45.550;12.074;2022-10-23T05:09:35;19.30;82.20
53286;DHT22;39171;45.550;12.074;2022-10-23T05:16:27;19.30;82.20
53286;DHT22;39171;45.550;12.074;2022-10-23T05:22:32;19.30;82.30
53286;DHT22;39171;45.550;12.074;2022-10-23T05:28:38;19.20;82.20
53286;DHT22;39171;45.550;12.074;2022-10-23T05:34:41;19.20;82.20
53286;DHT22;39171;45.550;12.074;2022-10-23T05:40:44;19.20;82.20
53286;DHT22;39171;45.550;12.074;2022-10-23T05:46:51;19.20;82.20
53286;DHT22;39171;45.550;12.074;2022-10-23T05:53:01;19.20;82.20
53286;DHT22;39171;45.550;12.074;2022-10-23T05:59:06;19.20;82.10
53286;DHT22;39171;45.550;12.074;2022-10-23T06:05:37;19.20;82.30
53286;DHT22;39171;45.550;12.074;2022-10-23T06:11:56;19.20;82.30
53286;DHT22;39171;45.550;12.074;2022-10-23T06:18:02;19.20;82.20
53286;DHT22;39171;45.550;12.074;2022-10-23T06:24:11;19.20;82.20
53286;DHT22;39171;45.550;12.074;2022-10-23T06:30:21;19.20;82.10
53286;DHT22;39171;45.550;12.074;2022-10-23T06:36:25;19.20;82.20
53286;DHT22;39171;45.550;12.074;2022-10-23T06:42:33;19.20;82.20
53286;DHT22;39171;45.550;12.074;2022-10-23T06:48:53;19.20;82.10
53286;DHT22;39171;45.550;12.074;2022-10-23T06:55:00;19.20;82.10
53286;DHT22;39171;45.550;12.074;2022-10-23T07:01:11;19.20;82.00
53286;DHT22;39171;45.550;12.074;2022-10-23T07:07:14;19.20;82.00
53286;DHT22;39171;45.550;12.074;2022-10-23T07:13:22;19.20;82.00
53286;DHT22;39171;45.550;12.074;2022-10-23T07:19:35;19.20;82.10
53286;DHT22;39171;45.550;12.074;2022-10-23T07:25:46;19.20;82.00
53286;DHT22;39171;45.550;12.074;2022-10-23T07:31:55;19.20;81.90
53286;DHT22;39171;45.550;12.074;2022-10-23T07:38:17;19.20;81.90
53286;DHT22;39171;45.550;12.074;2022-10-23T07:44:24;19.20;81.80
53286;DHT22;39171;45.550;12.074;2022-10-23T07:50:30;19.20;81.80
53286;DHT22;39171;45.550;12.074;2022-10-23T07:56:32;19.20;81.70
53286;DHT22;39171;45.550;12.074;2022-10-23T08:03:03;19.20;81.70
53286;DHT22;39171;45.550;12.074;2022-10-23T08:09:06;19.20;81.70
53286;DHT22;39171;45.550;12.074;2022-10-23T08:15:12;19.20;81.60
53286;DHT22;39171;45.550;12.074;2022-10-23T08:21:25;19.20;81.50
53286;DHT22;39171;45.550;12.074;2022-10-23T08:27:29;19.20;81.40
53286;DHT22;39171;45.550;12.074;2022-10-23T08:33:30;19.20;81.40
53286;DHT22;39171;45.550;12.074;2022-10-23T08:39:32;19.20;81.30
53286;DHT22;39171;45.550;12.074;2022-10-23T08:45:51;19.30;81.20
53286;DHT22;39171;45.550;12.074;2022-10-23T08:52:21;19.20;81.10
53286;DHT22;39171;45.550;12.074;2022-10-23T08:58:26;19.30;81.00
53286;DHT22;39171;45.550;12.074;2022-10-23T09:04:34;19.30;80.90
53286;DHT22;39171;45.550;12.074;2022-10-23T09:17:25;19.30;80.80
53286;DHT22;39171;45.550;12.074;2022-10-23T09:23:28;19.30;80.70
53286;DHT22;39171;45.550;12.074;2022-10-23T09:29:32;19.30;80.60
53286;DHT22;39171;45.550;12.074;2022-10-23T09:35:36;19.30;80.50
53286;DHT22;39171;45.550;12.074;2022-10-23T09:41:42;19.30;80.50
53286;DHT22;39171;45.550;12.074;2022-10-23T09:47:44;19.30;80.40
53286;DHT22;39171;45.550;12.074;2022-10-23T09:53:56;19.30;80.40
53286;DHT22;39171;45.550;12.074;2022-10-23T10:00:19;19.30;80.20
53286;DHT22;39171;45.550;12.074;2022-10-23T10:06:27;19.40;80.10
53286;DHT22;39171;45.550;12.074;2022-10-23T10:12:41;19.40;80.00
53286;DHT22;39171;45.550;12.074;2022-10-23T10:38:19;19.40;79.70
53286;DHT22;39171;45.550;12.074;2022-10-23T10:57:03;19.50;79.50
53286;DHT22;39171;45.550;12.074;2022-10-23T11:03:33;19.50;79.40
53286;DHT22;39171;45.550;12.074;2022-10-23T11:09:38;19.50;79.30
53286;DHT22;39171;45.550;12.074;2022-10-23T11:15:41;19.50;79.20
53286;DHT22;39171;45.550;12.074;2022-10-23T11:40:58;19.60;79.00
53286;DHT22;39171;45.550;12.074;2022-10-23T11:59:50;19.60;78.90
53286;DHT22;39171;45.550;12.074;2022-10-23T12:06:01;19.60;78.90
53286;DHT22;39171;45.550;12.074;2022-10-23T12:12:15;19.60;78.80
53286;DHT22;39171;45.550;12.074;2022-10-23T12:18:17;19.60;78.80
53286;DHT22;39171;45.550;12.074;2022-10-23T12:24:41;19.70;78.80
53286;DHT22;39171;45.550;12.074;2022-10-23T12:49:28;19.70;79.00
53286;DHT22;39171;45.550;12.074;2022-10-23T13:01:58;19.70;79.00
53286;DHT22;39171;45.550;12.074;2022-10-23T13:08:00;19.80;79.00
53286;DHT22;39171;45.550;12.074;2022-10-23T13:14:37;19.80;78.90
53286;DHT22;39171;45.550;12.074;2022-10-23T13:20:57;19.80;78.90
53286;DHT22;39171;45.550;12.074;2022-10-23T13:26:59;19.80;79.00
53286;DHT22;39171;45.550;12.074;2022-10-23T13:33:13;19.80;79.00
53286;DHT22;39171;45.550;12.074;2022-10-23T13:39:15;19.80;79.10
53286;DHT22;39171;45.550;12.074;2022-10-23T13:45:22;19.80;79.10
53286;DHT22;39171;45.550;12.074;2022-10-23T13:51:25;19.90;79.10
53286;DHT22;39171;45.550;12.074;2022-10-23T13:57:28;19.90;79.10
53286;DHT22;39171;45.550;12.074;2022-10-23T14:03:30;19.90;79.10
53286;DHT22;39171;45.550;12.074;2022-10-23T14:09:32;19.90;79.10
53286;DHT22;39171;45.550;12.074;2022-10-23T14:15:33;19.90;79.10
53286;DHT22;39171;45.550;12.074;2022-10-23T14:21:35;19.90;79.20
53286;DHT22;39171;45.550;12.074;2022-10-23T14:27:36;19.90;79.10
53286;DHT22;39171;45.550;12.074;2022-10-23T14:33:38;19.90;79.10
53286;DHT22;39171;45.550;12.074;2022-10-23T14:39:39;19.90;79.10
53286;DHT22;39171;45.550;12.074;2022-10-23T14:45:41;19.90;79.10
53286;DHT22;39171;45.550;12.074;2022-10-23T14:51:42;19.90;79.20
53286;DHT22;39171;45.550;12.074;2022-10-23T14:57:44;19.80;79.30
53286;DHT22;39171;45.550;12.074;2022-10-23T15:03:46;19.80;79.30
53286;DHT22;39171;45.550;12.074;2022-10-23T15:09:51;19.90;79.30
53286;DHT22;39171;45.550;12.074;2022-10-23T15:16:06;19.80;79.30
53286;DHT22;39171;45.550;12.074;2022-10-23T15:22:08;19.90;79.40
53286;DHT22;39171;45.550;12.074;2022-10-23T15:28:10;19.80;79.40
53286;DHT22;39171;45.550;12.074;2022-10-23T15:34:14;19.90;79.40
53286;DHT22;39171;45.550;12.074;2022-10-23T15:40:16;19.90;79.40
53286;DHT22;39171;45.550;12.074;2022-10-23T15:46:18;19.90;79.40
53286;DHT22;39171;45.550;12.074;2022-10-23T15:52:25;19.90;79.40
53286;DHT22;39171;45.550;12.074;2022-10-23T15:58:28;19.80;79.40
53286;DHT22;39171;45.550;12.074;2022-10-23T16:04:30;19.80;79.40
53286;DHT22;39171;45.550;12.074;2022-10-23T16:10:32;19.80;79.40
53286;DHT22;39171;45.550;12.074;2022-10-23T16:16:34;19.80;79.40
53286;DHT22;39171;45.550;12.074;2022-10-23T16:22:35;19.80;79.40
53286;DHT22;39171;45.550;12.074;2022-10-23T16:28:37;19.80;79.40
53286;DHT22;39171;45.550;12.074;2022-10-23T16:34:38;19.80;79.50
53286;DHT22;39171;45.550;12.074;2022-10-23T16:40:40;19.80;79.40
53286;DHT22;39171;45.550;12.074;2022-10-23T16:47:14;19.80;79.40
53286;DHT22;39171;45.550;12.074;2022-10-23T16:53:15;19.80;79.40
53286;DHT22;39171;45.550;12.074;2022-10-23T16:59:17;19.80;79.40
53286;DHT22;39171;45.550;12.074;2022-10-23T17:05:18;19.80;79.40
53286;DHT22;39171;45.550;12.074;2022-10-23T17:11:25;19.80;79.30
53286;DHT22;39171;45.550;12.074;2022-10-23T17:17:27;19.70;79.30
53286;DHT22;39171;45.550;12.074;2022-10-23T17:23:29;19.80;79.30
53286;DHT22;39171;45.550;12.074;2022-10-23T17:29:31;19.80;79.30
53286;DHT22;39171;45.550;12.074;2022-10-23T17:35:33;19.70;79.20
53286;DHT22;39171;45.550;12.074;2022-10-23T17:41:35;19.80;79.20
53286;DHT22;39171;45.550;12.074;2022-10-23T17:47:37;19.80;79.20
53286;DHT22;39171;45.550;12.074;2022-10-23T17:53:44;19.80;79.20
53286;DHT22;39171;45.550;12.074;2022-10-23T17:59:46;19.80;79.20
53286;DHT22;39171;45.550;12.074;2022-10-23T18:05:48;19.80;79.20
53286;DHT22;39171;45.550;12.074;2022-10-23T18:11:56;19.70;79.20
53286;DHT22;39171;45.550;12.074;2022-10-23T18:17:58;19.70;79.20
53286;DHT22;39171;45.550;12.074;2022-10-23T18:24:00;19.70;79.20
53286;DHT22;39171;45.550;12.074;2022-10-23T18:30:03;19.70;79.10
53286;DHT22;39171;45.550;12.074;2022-10-23T18:36:17;19.70;79.20
53286;DHT22;39171;45.550;12.074;2022-10-23T18:42:18;19.70;79.20
53286;DHT22;39171;45.550;12.074;2022-10-23T18:48:20;19.70;79.20
53286;DHT22;39171;45.550;12.074;2022-10-23T18:54:21;19.70;79.30
53286;DHT22;39171;45.550;12.074;2022-10-23T19:00:23;19.70;79.30
53286;DHT22;39171;45.550;12.074;2022-10-23T19:06:25;19.70;79.30
53286;DHT22;39171;45.550;12.074;2022-10-23T19:12:26;19.70;79.30
53286;DHT22;39171;45.550;12.074;2022-10-23T19:18:28;19.70;79.40
53286;DHT22;39171;45.550;12.074;2022-10-23T19:24:38;19.70;79.40
53286;DHT22;39171;45.550;12.074;2022-10-23T19:30:41;19.70;79.50
53286;DHT22;39171;45.550;12.074;2022-10-23T19:36:43;19.70;79.50
53286;DHT22;39171;45.550;12.074;2022-10-23T19:42:45;19.70;79.60
53286;DHT22;39171;45.550;12.074;2022-10-23T19:48:46;19.70;79.70
53286;DHT22;39171;45.550;12.074;2022-10-23T19:54:48;19.70;79.70
53286;DHT22;39171;45.550;12.074;2022-10-23T20:00:50;19.70;79.70
53286;DHT22;39171;45.550;12.074;2022-10-23T20:06:51;19.70;79.80
53286;DHT22;39171;45.550;12.074;2022-10-23T20:12:53;19.70;80.00
53286;DHT22;39171;45.550;12.074;2022-10-23T20:18:55;19.70;79.90
53286;DHT22;39171;45.550;12.074;2022-10-23T20:24:57;19.70;80.00
53286;DHT22;39171;45.550;12.074;2022-10-23T20:30:58;19.70;80.10
53286;DHT22;39171;45.550;12.074;2022-10-23T20:37:02;19.70;80.00
53286;DHT22;39171;45.550;12.074;2022-10-23T20:43:04;19.70;80.20
53286;DHT22;39171;45.550;12.074;2022-10-23T20:49:05;19.70;80.20
53286;DHT22;39171;45.550;12.074;2022-10-23T20:55:08;19.60;80.20
53286;DHT22;39171;45.550;12.074;2022-10-23T21:01:12;19.70;80.20
53286;DHT22;39171;45.550;12.074;2022-10-23T21:07:14;19.70;80.10
53286;DHT22;39171;45.550;12.074;2022-10-23T21:13:16;19.70;80.20
53286;DHT22;39171;45.550;12.074;2022-10-23T21:19:17;19.60;80.30
53286;DHT22;39171;45.550;12.074;2022-10-23T21:25:19;19.70;80.30
53286;DHT22;39171;45.550;12.074;2022-10-23T21:31:21;19.70;80.30
53286;DHT22;39171;45.550;12.074;2022-10-23T21:37:23;19.70;80.30
53286;DHT22;39171;45.550;12.074;2022-10-23T21:43:25;19.60;80.40
53286;DHT22;39171;45.550;12.074;2022-10-23T21:49:27;19.70;80.40
53286;DHT22;39171;45.550;12.074;2022-10-23T21:55:29;19.70;80.40
53286;DHT22;39171;45.550;12.074;2022-10-23T22:01:32;19.60;80.40
53286;DHT22;39171;45.550;12.074;2022-10-23T22:07:34;19.60;80.50
53286;DHT22;39171;45.550;12.074;2022-10-23T22:13:36;19.60;80.40
53286;DHT22;39171;45.550;12.074;2022-10-23T22:19:38;19.60;80.40
53286;DHT22;39171;45.550;12.074;2022-10-23T22:25:39;19.60;80.50
53286;DHT22;39171;45.550;12.074;2022-10-23T22:31:41;19.60;80.50
53286;DHT22;39171;45.550;12.074;2022-10-23T22:37:42;19.60;80.60
53286;DHT22;39171;45.550;12.074;2022-10-23T22:43:43;19.60;80.60
53286;DHT22;39171;45.550;12.074;2022-10-23T22:49:45;19.60;80.50
53286;DHT22;39171;45.550;12.074;2022-10-23T22:55:46;19.60;80.50
53286;DHT22;39171;45.550;12.074;2022-10-23T23:01:51;19.60;80.50
53286;DHT22;39171;45.550;12.074;2022-10-23T23:07:53;19.60;80.50
53286;DHT22;39171;45.550;12.074;2022-10-23T23:13:54;19.60;80.50
53286;DHT22;39171;45.550;12.074;2022-10-23T23:19:55;19.60;80.50
53286;DHT22;39171;45.550;12.074;2022-10-23T23:25:57;19.60;80.40
53286;DHT22;39171;45.550;12.074;2022-10-23T23:31:59;19.60;80.40
53286;DHT22;39171;45.550;12.074;2022-10-23T23:38:00;19.60;80.40
53286;DHT22;39171;45.550;12.074;2022-10-23T23:44:02;19.60;80.50
53286;DHT22;39171;45.550;12.074;2022-10-23T23:50:05;19.60;80.50
53286;DHT22;39171;45.550;12.074;2022-10-23T23:56:07;19.60;80.50
